Huvudsida
METAR-TAF:

METAR-TAF

Flygplatser :

Rom-Urbe flygplats

Rom, Italien

latitud: 41-57N, longitud: 012-30E, höjd: 18 m

Aktuellt väderrapport

Denna rapport gjordes för 7 timmar och 21 minuter sedan, klockan 15:50 UTC
Vind 8 kt från väst/nordväst
Temperatur 13°C
Fuktighet 82%
Tryck 1006 hPa
Sikt 10 km eller mer
Inga moln under 1 500 m eller inga cumulonimbus

METAR: LIRU 171550Z 30008KT CAVOK 13/10 Q1006

Tid: 00:11 (23:11 UTC)

Väderprognos

Denna rapport gjordes för 9 timmar och 11 minuter sedan, klockan 14:00 UTC
Prognos gäller från 17 kl. 15 UTC till 17 kl. 24 UTC
Vind 11 kt från syd
Sikt 10 km eller mer
Spridda moln på en höjd av 1800 ft
Brutna moln på en höjd av 3500 ft
Blir
från 17 kl. 18 UTC till 17 kl. 20 UTC
Vind 5 kt varierande vindriktning

TAF: LIRU 171400Z 1715/1724 17011KT 9999 SCT018 BKN035 BECMG 1718/1720 VRB05KT

Aktuella väderrapporter och prognoser från 4000 flygplatser (METAR- och TAF-rapporter).

De tillgängliga stationerna syns som gula och röda prickar på kartan.

För musen över prickarna för att se namnen på stationerna.

Klicka sedan för att få väderrapporter och prognoser.

För att ändra kartan: Klicka på de gröna knapparna med ett svart kors på för att zooma in; den gröna knappen med ett streck på för att zooma ut; eller på de gröna pilarna för angränsande kartor.


METAR-TAF: